Time;durP1;ratioP1;P1;durP2;ratioP2;P2;SDS_P1;SDS_P2;PMS_P1;PMS_P2;Temp;Humidity;BMP_temperature;BMP_pressure;BME280_temperature;BME280_humidity;BME280_pressure;Samples;Min_cycle;Max_cycle;Signal;HPM_P1;HPM_P2
2024/03/23 00:24:35;;;;;;;5.72;3.17;;;;;;;14.37;56.89;94354.97;5831238;24;20588;-90
2024/03/23 00:38:31;;;;;;;2.75;1.90;;;;;;;14.45;52.44;94105.25;5866394;24;20233;-90
2024/03/23 00:45:31;;;;;;;1.98;1.73;;;;;;;14.54;51.67;94046.06;5948086;23;20372;-91
2024/03/23 00:49:35;;;;;;;1.88;1.67;;;;;;;14.57;51.39;94027.47;6024164;23;20259;-90
2024/03/23 01:12:57;;;;;;;1.75;1.65;;;;;;;14.57;50.79;93953.16;5716053;24;20215;-89
2024/03/23 01:30:31;;;;;;;2.58;1.60;;;;;;;14.61;50.93;93954.25;5866933;24;20189;-89
2024/03/23 01:50:39;;;;;;;2.90;1.80;;;;;;;14.60;51.10;93954.47;5908958;24;20373;-89
2024/03/23 02:17:00;;;;;;;3.10;1.60;;;;;;;14.46;52.12;93995.47;5971282;24;20175;-89
2024/03/23 02:26:58;;;;;;;6.68;1.92;;;;;;;14.41;52.53;93992.84;5875594;24;20833;-89
2024/03/23 02:30:24;;;;;;;2.25;1.75;;;;;;;14.39;52.81;93995.63;5948066;24;20175;-89
2024/03/23 02:33:34;;;;;;;1.67;1.58;;;;;;;14.37;52.47;93992.50;6059416;23;20277;-90
2024/03/23 03:00:24;;;;;;;3.00;2.20;;;;;;;14.10;53.86;94022.63;5962791;24;20183;-89
2024/03/23 03:17:35;;;;;;;2.03;1.90;;;;;;;13.93;54.84;94063.25;5963792;23;20182;-89
2024/03/23 03:41:50;;;;;;;3.40;1.90;;;;;;;13.74;55.50;94076.41;5766429;24;20261;-88
2024/03/23 04:19:24;;;;;;;;;;;;;;;;;;;;;
2024/03/23 04:54:35;;;;;;;;;;;;;;;;;;;;;
2024/03/23 05:01:30;;;;;;;2.13;1.70;;;;;;;13.47;55.81;93975.34;5970666;23;20183;-88
2024/03/23 05:11:38;;;;;;;3.10;1.60;;;;;;;13.59;54.92;93918.41;6094782;23;20181;-88
2024/03/23 05:18:31;;;;;;;;;;;;;;;;;;;;;
2024/03/23 05:25:25;;;;;;;2.17;1.47;;;;;;;13.66;53.42;93823.31;5944424;24;20199;-88
2024/03/23 05:38:57;;;;;;;2.33;1.58;;;;;;;13.93;53.05;93797.56;5962115;24;20179;-88
2024/03/23 05:52:09;;;;;;;;;;;;;;;;;;;;;
2024/03/23 06:08:28;;;;;;;2.83;1.55;;;;;;;13.81;53.34;93776.19;6149925;23;20183;-87
2024/03/23 06:14:41;;;;;;;1.70;1.60;;;;;;;13.95;53.59;93781.78;6113645;23;20369;-88
2024/03/23 06:17:13;;;;;;;2.28;1.35;;;;;;;13.98;54.20;93820.13;6121301;23;20251;-86
2024/03/23 06:22:20;;;;;;;1.67;1.58;;;;;;;14.36;55.19;93866.66;6106472;23;20176;-82
2024/03/23 06:24:47;;;;;;;1.75;1.30;;;;;;;14.52;53.87;93814.03;6121913;23;20256;-84
2024/03/23 06:36:47;;;;;;;1.35;1.17;;;;;;;14.68;51.84;93675.09;6115624;23;20179;-88
2024/03/23 06:39:18;;;;;;;1.40;1.30;;;;;;;14.79;51.23;93624.13;6119854;23;20175;-87
2024/03/23 06:56:57;;;;;;;2.40;1.40;;;;;;;15.77;49.93;93543.88;5878261;24;20265;-87
2024/03/23 07:03:36;;;;;;;1.63;1.25;;;;;;;16.28;49.31;93510.13;5894642;24;20211;-87
2024/03/23 07:15:16;;;;;;;4.53;1.60;;;;;;;15.61;51.92;93635.66;5868633;24;20283;-86
2024/03/23 07:17:49;;;;;;;1.73;1.38;;;;;;;15.49;51.60;93641.06;5936621;24;20180;-85
2024/03/23 07:20:23;;;;;;;3.33;1.50;;;;;;;15.53;51.55;93644.69;6079337;23;20203;-86
2024/03/23 07:22:49;;;;;;;1.90;1.67;;;;;;;15.49;51.74;93654.78;6089857;23;20267;-86
2024/03/23 07:25:22;;;;;;;2.75;1.40;;;;;;;15.51;51.66;93673.47;6089846;23;20516;-86
2024/03/23 07:27:51;;;;;;;1.98;1.40;;;;;;;15.48;52.03;93675.78;6090246;23;20176;-84
2024/03/23 07:30:20;;;;;;;3.20;1.40;;;;;;;15.54;52.02;93685.94;6089331;23;20200;-84
2024/03/23 07:33:00;;;;;;;1.45;1.35;;;;;;;15.59;52.15;93700.75;6089309;23;20192;-86
2024/03/23 07:35:42;;;;;;;2.85;1.95;;;;;;;15.50;52.59;93739.34;6089079;23;20497;-86
2024/03/23 07:38:10;;;;;;;2.08;1.50;;;;;;;15.43;53.07;93785.47;6087994;23;20242;-86
2024/03/23 07:40:42;;;;;;;3.72;2.20;;;;;;;15.19;57.53;94002.06;6089802;23;20187;-87
2024/03/23 07:43:13;;;;;;;3.35;1.90;;;;;;;14.84;60.63;94174.22;6090337;23;20220;-86
2024/03/23 07:45:40;;;;;;;2.10;1.75;;;;;;;14.67;62.77;94274.47;6090066;23;20177;-86
2024/03/23 07:48:08;;;;;;;2.83;1.80;;;;;;;14.51;65.50;94333.00;6089327;23;20196;-85
2024/03/23 07:50:43;;;;;;;4.22;2.00;;;;;;;14.25;67.39;94381.91;6089603;23;20183;-87
2024/03/23 07:53:09;;;;;;;1.88;1.70;;;;;;;13.98;67.77;94397.94;6089726;23;20255;-86
2024/03/23 07:55:43;;;;;;;1.98;1.73;;;;;;;13.76;70.07;94452.03;6089806;23;20707;-86
2024/03/23 07:58:11;;;;;;;2.22;1.77;;;;;;;13.57;71.71;94510.03;6088971;23;20206;-86
2024/03/23 08:00:40;;;;;;;1.80;1.70;;;;;;;13.48;74.52;94584.53;6089387;23;20168;-85
2024/03/23 08:03:05;;;;;;;1.70;1.60;;;;;;;13.17;75.88;94609.78;6090124;23;20188;-86
2024/03/23 08:05:33;;;;;;;3.42;1.70;;;;;;;13.21;79.08;94680.72;6089425;23;20165;-85
2024/03/23 08:08:13;;;;;;;3.53;2.10;;;;;;;13.15;81.51;94726.28;6093450;23;20195;-85
2024/03/23 08:11:10;;;;;;;2.00;1.80;;;;;;;12.91;83.36;94756.28;6119723;23;20191;-85
2024/03/23 08:14:15;;;;;;;2.72;1.92;;;;;;;12.85;85.28;94813.19;6096131;23;20196;-86
2024/03/23 08:16:48;;;;;;;2.30;2.10;;;;;;;12.89;86.23;94859.06;6120809;23;20211;-85
2024/03/23 08:20:55;;;;;;;;;;;;;;;;;;;;;
2024/03/23 08:22:42;;;;;;;2.87;2.07;;;;;;;12.72;90.02;94896.69;6041170;23;20191;-85
2024/03/23 08:25:50;;;;;;;2.87;2.27;;;;;;;12.61;90.90;94920.59;6119630;23;20172;-86
2024/03/23 08:35:13;;;;;;;1.60;1.50;;;;;;;12.35;90.99;94952.44;6118076;23;20217;-87
2024/03/23 08:37:48;;;;;;;1.53;1.43;;;;;;;12.18;90.22;94936.59;6120127;23;20184;-85
2024/03/23 08:43:55;;;;;;;2.13;1.93;;;;;;;12.08;90.89;94969.78;6160144;23;20178;-87
2024/03/23 08:46:38;;;;;;;1.73;1.63;;;;;;;12.05;90.33;94960.66;6186758;23;20181;-88
2024/03/23 08:49:05;;;;;;;2.93;1.73;;;;;;;12.18;93.74;95014.03;6187721;23;20170;-86
2024/03/23 08:51:35;;;;;;;2.90;1.70;;;;;;;12.52;93.36;95025.09;6188249;23;20233;-86
2024/03/23 08:54:06;;;;;;;2.00;1.70;;;;;;;12.47;88.57;94932.75;6186464;23;20198;-86
2024/03/23 08:56:38;;;;;;;2.00;1.77;;;;;;;12.44;87.16;94909.94;6183755;23;20178;-86
2024/03/23 08:59:15;;;;;;;1.93;1.70;;;;;;;12.37;87.58;94937.53;6186139;23;20277;-86
2024/03/23 09:01:41;;;;;;;2.43;2.17;;;;;;;12.34;87.64;94938.75;6188379;23;20197;-87
2024/03/23 09:04:15;;;;;;;1.87;1.60;;;;;;;12.34;89.21;94987.00;6187369;23;20170;-87
2024/03/23 09:06:53;;;;;;;2.03;1.83;;;;;;;12.34;87.96;94961.19;6188558;23;20158;-87
2024/03/23 09:09:29;;;;;;;2.67;1.83;;;;;;;12.35;87.33;94960.19;6188254;23;20166;-87
2024/03/23 09:12:27;;;;;;;2.40;2.10;;;;;;;12.27;89.56;94996.56;6187999;23;20165;-87
2024/03/23 09:14:53;;;;;;;2.00;1.83;;;;;;;12.12;91.44;95014.84;6182136;23;20194;-87
2024/03/23 09:17:50;;;;;;;2.90;2.37;;;;;;;12.08;92.04;95026.56;6188636;23;20174;-88
2024/03/23 09:20:26;;;;;;;2.40;2.20;;;;;;;12.21;89.74;94992.97;6187783;23;20841;-86
2024/03/23 09:23:00;;;;;;;2.30;2.10;;;;;;;12.21;90.87;95012.84;6188474;23;20201;-86
2024/03/23 09:25:38;;;;;;;2.23;2.00;;;;;;;12.28;89.00;94982.66;6188560;23;20245;-86
2024/03/23 09:28:28;;;;;;;2.27;2.07;;;;;;;12.13;90.33;95006.09;6189070;23;20169;-87
2024/03/23 09:31:02;;;;;;;2.23;1.90;;;;;;;11.97;92.16;95040.81;6138574;23;20222;-88
2024/03/23 09:33:32;;;;;;;2.47;2.27;;;;;;;11.91;92.11;95038.25;6187492;23;20163;-86
2024/03/23 09:36:08;;;;;;;1.80;1.70;;;;;;;11.79;90.61;95024.34;6187014;23;20191;-87
2024/03/23 09:38:43;;;;;;;2.00;1.70;;;;;;;11.77;91.50;95048.53;6187649;23;20170;-86
2024/03/23 09:41:16;;;;;;;2.40;1.30;;;;;;;11.56;86.24;94942.97;6187727;23;20205;-86
2024/03/23 09:43:48;;;;;;;1.63;1.10;;;;;;;11.49;82.67;94857.13;6186391;23;20158;-86
2024/03/23 09:46:15;;;;;;;1.33;1.20;;;;;;;11.52;84.78;94917.81;6186706;23;20174;-86
2024/03/23 09:48:55;;;;;;;1.17;1.07;;;;;;;11.48;83.01;94889.06;6188717;23;20179;-85
2024/03/23 09:52:00;;;;;;;1.00;0.90;;;;;;;11.52;82.65;94873.97;6188213;23;20220;-85
2024/03/23 09:57:53;;;;;;;4.33;1.40;;;;;;;11.31;84.42;94940.19;6154483;23;20173;-87
2024/03/23 10:00:24;;;;;;;1.10;1.00;;;;;;;11.31;82.84;94911.84;6185768;23;20198;-85
2024/03/23 10:10:42;;;;;;;;;;;;;;;;;;;;;
2024/03/23 10:13:55;;;;;;;1.53;1.00;;;;;;;10.54;83.30;94921.78;6066228;23;20184;-87
2024/03/23 10:16:40;;;;;;;0.90;0.90;;;;;;;10.59;83.44;94930.47;6185426;23;20169;-86
2024/03/23 10:21:53;;;;;;;1.00;1.00;;;;;;;10.81;85.13;94974.13;6189740;23;20592;-86
2024/03/23 10:24:19;;;;;;;1.27;1.17;;;;;;;10.87;85.96;95005.06;6194213;23;20652;-86
2024/03/23 10:27:02;;;;;;;1.30;1.20;;;;;;;10.88;87.79;95041.91;6192650;23;20175;-88
2024/03/23 10:29:36;;;;;;;1.17;1.07;;;;;;;10.79;85.36;94992.34;6190818;23;20181;-87
2024/03/23 10:32:15;;;;;;;3.83;3.43;;;;;;;10.88;85.93;95006.66;6191416;23;20173;-85
2024/03/23 10:34:48;;;;;;;2.03;1.27;;;;;;;10.89;85.36;94992.81;6191685;23;20680;-87
2024/03/23 10:37:16;;;;;;;1.20;1.10;;;;;;;10.98;85.72;95019.16;6191289;23;20225;-87
2024/03/23 10:40:12;;;;;;;0.90;0.90;;;;;;;11.02;83.49;94974.00;6190509;23;20508;-87
2024/03/23 10:42:56;;;;;;;1.27;1.00;;;;;;;10.97;83.21;94995.19;6190207;23;20197;-86
2024/03/23 10:45:29;;;;;;;0.80;0.80;;;;;;;10.53;81.95;94936.41;6193283;23;20166;-88
2024/03/23 10:47:57;;;;;;;0.50;0.50;;;;;;;10.46;79.62;94891.03;6194764;23;20181;-86
2024/03/23 10:50:23;;;;;;;1.57;1.00;;;;;;;10.43;77.39;94811.66;6195164;23;20261;-87
2024/03/23 10:53:05;;;;;;;;;;;;;;;;;;;;;
2024/03/23 10:55:43;;;;;;;0.93;0.73;;;;;;;10.34;74.32;94739.81;6192018;23;20230;-87
2024/03/23 10:58:25;;;;;;;2.23;2.03;;;;;;;10.46;74.37;94740.00;6192950;23;20162;-85
2024/03/23 11:00:53;;;;;;;1.70;1.60;;;;;;;10.59;75.95;94806.13;6189601;23;20256;-87
2024/03/23 11:03:34;;;;;;;0.97;0.90;;;;;;;10.66;74.41;94763.97;6193366;23;20174;-87
2024/03/23 11:06:10;;;;;;;1.90;0.90;;;;;;;10.70;73.88;94744.59;6193284;23;20166;-85
2024/03/23 11:08:38;;;;;;;0.70;0.70;;;;;;;10.73;74.83;94780.25;6192503;23;20174;-87
2024/03/23 11:11:23;;;;;;;0.80;0.80;;;;;;;10.76;74.21;94789.34;6192171;23;20218;-85
2024/03/23 11:14:19;;;;;;;0.87;0.60;;;;;;;10.78;74.73;94807.94;6188890;23;20178;-85
2024/03/23 11:17:11;;;;;;;2.30;0.80;;;;;;;10.70;74.42;94800.44;6187004;23;20228;-87
2024/03/23 11:19:41;;;;;;;0.90;0.87;;;;;;;10.66;74.54;94818.03;6193904;23;20198;-85
2024/03/23 11:22:14;;;;;;;1.10;0.90;;;;;;;10.74;77.97;94932.94;6188677;23;20197;-87
2024/03/23 11:24:45;;;;;;;2.57;0.90;;;;;;;10.89;74.70;94794.50;6189668;23;20182;-85
2024/03/23 11:30:23;;;;;;;1.00;0.87;;;;;;;11.05;72.84;94737.44;6188479;23;20232;-86
2024/03/23 11:33:04;;;;;;;0.70;0.70;;;;;;;11.14;73.28;94763.00;6189836;23;20166;-86
2024/03/23 11:35:43;;;;;;;1.10;0.90;;;;;;;11.23;74.18;94803.81;6189676;23;20205;-86
2024/03/23 11:38:10;;;;;;;1.53;1.17;;;;;;;11.19;73.96;94794.09;6189625;23;20403;-86
2024/03/23 11:40:41;;;;;;;0.80;0.77;;;;;;;11.28;73.30;94773.09;6188944;23;20210;-87
2024/03/23 11:43:08;;;;;;;1.73;1.20;;;;;;;11.34;72.73;94771.50;6189781;23;20173;-88
2024/03/23 11:45:52;;;;;;;1.43;1.00;;;;;;;11.26;72.38;94751.09;6188827;23;20202;-87
2024/03/23 11:48:23;;;;;;;1.07;0.80;;;;;;;11.30;71.63;94732.44;6190694;23;20166;-85
2024/03/23 11:51:10;;;;;;;1.70;1.10;;;;;;;11.45;71.41;94724.47;6188166;23;20201;-86
2024/03/23 11:53:46;;;;;;;1.83;1.30;;;;;;;11.58;72.72;94759.72;6187117;23;20162;-88
2024/03/23 11:56:15;;;;;;;1.93;1.10;;;;;;;11.71;72.16;94731.34;6188158;23;20186;-88
2024/03/23 11:58:48;;;;;;;1.00;0.90;;;;;;;11.82;72.02;94740.25;6187498;23;20201;-88
2024/03/23 12:01:17;;;;;;;3.60;1.57;;;;;;;12.20;89.58;95146.25;6194257;23;20203;-86
2024/03/23 12:03:46;;;;;;;1.40;1.30;;;;;;;12.14;72.28;94698.00;6219055;23;20235;-88
2024/03/23 12:06:25;;;;;;;1.50;1.10;;;;;;;12.08;70.07;94611.94;6219837;23;20174;-87
2024/03/23 12:08:54;;;;;;;1.13;1.10;;;;;;;11.60;66.55;94456.13;6219917;23;20204;-87
2024/03/23 12:11:27;;;;;;;1.77;1.40;;;;;;;11.41;64.27;94298.84;6220281;23;20198;-87
2024/03/23 12:13:59;;;;;;;1.37;1.27;;;;;;;11.24;64.34;94297.03;6220256;23;20625;-88
2024/03/23 12:16:27;;;;;;;1.13;1.00;;;;;;;11.23;64.29;94293.66;6219402;23;20189;-89
2024/03/23 12:18:53;;;;;;;2.33;1.30;;;;;;;11.23;64.45;94291.09;6220185;23;20224;-89
2024/03/23 12:21:30;;;;;;;3.37;1.47;;;;;;;11.22;64.60;94328.16;6218827;23;20197;-86
2024/03/23 12:24:00;;;;;;;2.00;1.40;;;;;;;11.19;63.13;94248.72;6220805;23;20169;-89
2024/03/23 12:26:34;;;;;;;1.80;1.50;;;;;;;11.18;61.16;94128.66;6218749;23;20181;-88
2024/03/23 12:29:02;;;;;;;1.87;1.63;;;;;;;11.04;60.57;94111.78;6219317;23;20161;-88
2024/03/23 12:31:30;;;;;;;2.90;1.80;;;;;;;11.13;60.59;94104.56;6220028;23;20232;-86
2024/03/23 12:34:00;;;;;;;1.60;1.33;;;;;;;11.20;60.08;94084.66;6218942;23;20178;-89
2024/03/23 12:36:28;;;;;;;2.50;2.10;;;;;;;11.06;59.10;94022.22;6219785;23;20182;-89
2024/03/23 12:38:54;;;;;;;1.73;1.30;;;;;;;11.16;59.47;94058.53;6220060;23;20508;-86
2024/03/23 12:41:20;;;;;;;1.90;1.50;;;;;;;11.24;59.29;94067.75;6218822;23;20199;-85
2024/03/23 12:43:55;;;;;;;2.00;1.60;;;;;;;11.31;59.23;94079.56;6219135;23;20208;-86
2024/03/23 12:46:23;;;;;;;2.60;1.50;;;;;;;11.30;58.66;94054.81;6218937;23;20177;-86
2024/03/23 12:48:48;;;;;;;2.50;1.40;;;;;;;11.46;59.17;94073.22;6217873;23;20212;-87
2024/03/23 12:51:20;;;;;;;2.07;1.50;;;;;;;11.41;59.92;94118.47;6218367;23;20790;-87
2024/03/23 12:53:49;;;;;;;3.33;1.80;;;;;;;11.42;59.51;94096.06;6219490;23;20157;-85
2024/03/23 12:56:16;;;;;;;1.50;1.40;;;;;;;11.50;59.35;94102.72;6217365;23;20567;-85
2024/03/23 12:58:50;;;;;;;2.00;1.80;;;;;;;11.65;59.54;94110.84;6217744;23;20205;-86
2024/03/23 13:01:17;;;;;;;2.10;1.80;;;;;;;11.68;58.97;94080.25;6219921;23;20204;-87
2024/03/23 13:03:44;;;;;;;2.37;1.67;;;;;;;11.64;58.91;94081.69;6220007;23;20192;-88
2024/03/23 13:06:20;;;;;;;2.37;1.53;;;;;;;11.61;58.98;94074.41;6217065;23;20200;-88
2024/03/23 13:08:50;;;;;;;1.73;1.63;;;;;;;11.53;57.95;94022.38;6223096;23;20177;-89
2024/03/23 13:11:18;;;;;;;2.03;1.60;;;;;;;11.58;58.19;94025.84;6222477;23;20657;-88
2024/03/23 13:13:47;;;;;;;3.07;1.80;;;;;;;11.52;55.86;93904.84;6227012;23;20180;-87
2024/03/23 13:16:23;;;;;;;3.90;2.10;;;;;;;11.53;56.52;93934.75;6223533;23;20768;-88
2024/03/23 13:18:48;;;;;;;2.57;1.60;;;;;;;11.59;56.38;93923.53;6222269;23;20200;-88
2024/03/23 13:21:18;;;;;;;3.37;1.73;;;;;;;11.66;56.22;93912.13;6216737;23;20197;-85
2024/03/23 13:24:19;;;;;;;2.33;2.03;;;;;;;11.63;54.74;93902.25;6222298;23;20177;-89
2024/03/23 13:27:06;;;;;;;3.77;1.77;;;;;;;11.63;54.04;93883.44;6217045;23;20173;-89
2024/03/23 13:30:19;;;;;;;2.40;1.70;;;;;;;11.63;54.56;93916.94;6219968;23;20162;-88
2024/03/23 13:36:02;;;;;;;5.10;1.77;;;;;;;11.51;53.83;93887.81;6216830;23;20197;-88
2024/03/23 13:38:38;;;;;;;3.10;1.93;;;;;;;11.41;54.06;93883.19;6219703;23;20162;-87
2024/03/23 13:41:12;;;;;;;5.30;2.00;;;;;;;11.52;54.50;93913.38;6218005;23;20277;-85
2024/03/23 13:43:58;;;;;;;2.23;1.80;;;;;;;11.51;54.44;93941.94;6216633;23;20170;-88
2024/03/23 13:47:04;;;;;;;3.60;2.10;;;;;;;11.43;53.74;93919.84;6213378;23;20233;-88
2024/03/23 13:49:32;;;;;;;4.40;2.17;;;;;;;11.31;55.25;93991.97;6220734;23;20165;-89
2024/03/23 13:52:28;;;;;;;2.43;1.90;;;;;;;11.22;57.23;94147.03;6215722;23;20204;-89
2024/03/23 13:54:58;;;;;;;6.50;3.60;;;;;;;10.73;59.18;94234.47;6154886;23;20506;-88
2024/03/23 13:57:55;;;;;;;3.00;2.50;;;;;;;10.39;63.16;94451.06;6156464;23;20182;-89
2024/03/23 14:00:27;;;;;;;3.30;2.60;;;;;;;10.17;65.27;94561.06;6208651;23;20216;-87
2024/03/23 14:03:08;;;;;;;3.97;2.37;;;;;;;10.13;66.03;94575.31;6218913;23;20165;-88
2024/03/23 14:05:33;;;;;;;3.33;2.30;;;;;;;10.10;67.77;94628.94;6219169;23;20188;-85
2024/03/23 14:08:08;;;;;;;4.10;2.60;;;;;;;10.04;66.16;94573.91;6220315;23;20255;-87
2024/03/23 14:10:35;;;;;;;4.00;2.57;;;;;;;10.11;67.35;94621.00;6217749;23;20245;-85
2024/03/23 14:13:03;;;;;;;3.13;2.10;;;;;;;10.23;67.58;94621.25;6220104;23;20652;-85
2024/03/23 14:15:30;;;;;;;3.20;2.80;;;;;;;10.29;67.39;94628.16;6221254;23;20267;-84
2024/03/23 14:17:56;;;;;;;4.40;2.40;;;;;;;10.33;68.83;94670.53;6219239;23;20231;-85
2024/03/23 14:20:25;;;;;;;3.70;2.50;;;;;;;10.42;67.84;94638.44;6218176;23;20537;-86
2024/03/23 14:22:51;;;;;;;5.33;2.40;;;;;;;10.35;68.07;94633.31;6218436;23;20176;-87
2024/03/23 14:25:17;;;;;;;3.90;2.53;;;;;;;10.47;66.58;94579.47;6218279;23;20204;-85
2024/03/23 14:27:45;;;;;;;4.07;2.47;;;;;;;10.43;68.56;94659.84;6217490;23;20253;-87
2024/03/23 14:30:14;;;;;;;3.93;2.77;;;;;;;10.42;65.65;94539.88;6216643;23;20198;-85
2024/03/23 14:32:43;;;;;;;11.60;9.87;;;;;;;10.47;64.60;94506.63;6216729;23;20229;-87
2024/03/23 14:35:31;;;;;;;3.50;1.80;;;;;;;10.36;60.95;94331.31;6217592;23;20201;-85
2024/03/23 14:37:57;;;;;;;3.80;1.50;;;;;;;10.32;58.09;94185.31;6146605;23;20180;-86
2024/03/23 14:40:23;;;;;;;2.73;1.30;;;;;;;10.15;57.71;94136.13;6215924;23;20264;-85
2024/03/23 14:42:52;;;;;;;1.90;1.33;;;;;;;10.13;58.03;94161.28;6214318;23;20185;-85
2024/03/23 14:45:25;;;;;;;3.37;1.57;;;;;;;10.16;57.75;94170.34;6215438;23;20637;-86
2024/03/23 14:47:55;;;;;;;2.20;1.50;;;;;;;10.20;57.57;94184.41;6216863;23;20197;-86
2024/03/23 14:50:25;;;;;;;2.20;1.33;;;;;;;10.30;56.62;94128.13;6217964;23;20276;-86
2024/03/23 14:52:55;;;;;;;3.73;1.50;;;;;;;10.33;55.62;94071.91;6217283;23;20161;-86
2024/03/23 14:55:29;;;;;;;2.90;1.43;;;;;;;10.28;54.53;94011.81;6216294;23;20236;-87
2024/03/23 14:57:55;;;;;;;2.17;1.30;;;;;;;10.38;55.06;94064.34;6215260;23;20165;-85
2024/03/23 15:00:30;;;;;;;3.40;1.37;;;;;;;10.20;54.20;94012.84;6216916;23;20201;-85
2024/03/23 15:03:00;;;;;;;2.17;1.30;;;;;;;10.11;54.86;94044.97;6217332;23;20158;-83
2024/03/23 15:05:27;;;;;;;2.17;1.50;;;;;;;9.90;56.41;94146.38;6217389;23;20205;-85
2024/03/23 15:07:54;;;;;;;3.77;1.87;;;;;;;9.63;58.12;94232.31;6217803;23;20185;-87
2024/03/23 15:10:21;;;;;;;2.93;1.70;;;;;;;9.55;60.11;94346.38;6217754;23;20197;-85
2024/03/23 15:12:49;;;;;;;3.30;1.47;;;;;;;9.49;61.84;94431.16;6215683;23;20494;-86
2024/03/23 15:15:17;;;;;;;2.13;1.40;;;;;;;9.59;62.37;94454.69;6216871;23;20225;-85
2024/03/23 15:17:45;;;;;;;4.17;1.53;;;;;;;9.35;62.11;94449.16;6218212;23;20174;-85
2024/03/23 15:20:15;;;;;;;2.90;1.80;;;;;;;9.22;63.51;94504.84;6214945;23;20200;-86
2024/03/23 15:22:42;;;;;;;2.67;1.70;;;;;;;8.99;64.00;94489.78;6216675;23;20174;-85
2024/03/23 15:25:08;;;;;;;4.00;1.67;;;;;;;8.96;65.42;94550.00;6227400;23;20178;-86
2024/03/23 15:27:39;;;;;;;4.47;1.97;;;;;;;9.15;65.17;94543.34;6225565;23;20231;-86
2024/03/23 15:30:23;;;;;;;4.07;2.30;;;;;;;9.42;65.42;94562.19;6218778;23;20224;-87
2024/03/23 15:33:11;;;;;;;3.73;2.20;;;;;;;9.52;64.71;94536.91;6219521;23;20237;-86
2024/03/23 15:36:24;;;;;;;2.23;1.80;;;;;;;9.67;64.75;94527.22;6219638;23;20204;-87
2024/03/23 15:39:29;;;;;;;2.03;1.60;;;;;;;9.69;64.35;94511.63;6121630;23;20173;-88
2024/03/23 15:42:04;;;;;;;5.47;3.13;;;;;;;9.79;64.45;94517.19;6217003;23;20661;-85
2024/03/23 15:44:48;;;;;;;4.83;2.27;;;;;;;9.77;64.92;94526.06;6216415;23;20211;-86
2024/03/23 15:47:14;;;;;;;5.90;2.30;;;;;;;9.76;65.34;94540.69;6216566;23;20223;-85
2024/03/23 15:49:53;;;;;;;2.77;2.17;;;;;;;9.94;65.34;94569.19;6215968;23;20201;-86
2024/03/23 15:52:20;;;;;;;2.90;1.83;;;;;;;10.23;65.63;94583.44;6221966;23;20165;-87
2024/03/23 15:54:52;;;;;;;3.50;1.90;;;;;;;10.52;64.30;94560.88;6220675;23;20181;-86
2024/03/23 15:57:34;;;;;;;2.73;1.80;;;;;;;10.39;63.85;94530.81;6222540;23;20197;-87
2024/03/23 16:00:03;;;;;;;2.77;1.97;;;;;;;10.29;63.96;94522.69;6220838;23;20273;-87
2024/03/23 16:02:34;;;;;;;4.23;1.73;;;;;;;10.26;64.19;94511.03;6220137;23;20189;-86
2024/03/23 16:05:28;;;;;;;3.07;1.90;;;;;;;10.22;64.33;94514.97;6217188;23;20165;-85
2024/03/23 16:07:59;;;;;;;3.30;1.70;;;;;;;10.02;64.36;94511.59;6148997;23;20256;-87
2024/03/23 16:10:36;;;;;;;4.20;1.97;;;;;;;9.89;64.88;94525.28;6217257;23;20197;-85
2024/03/23 16:13:24;;;;;;;4.60;2.60;;;;;;;9.90;64.88;94534.56;6218678;23;20185;-85
2024/03/23 16:16:16;;;;;;;4.33;2.83;;;;;;;9.97;64.82;94532.78;6213856;23;20200;-85
2024/03/23 16:18:43;;;;;;;3.70;2.23;;;;;;;10.03;64.98;94526.84;6214224;23;20801;-87
2024/03/23 16:21:21;;;;;;;3.50;2.20;;;;;;;10.08;65.11;94536.53;6213995;23;20232;-87
2024/03/23 16:23:47;;;;;;;2.87;1.80;;;;;;;9.93;64.77;94515.38;6215502;23;20166;-87
2024/03/23 16:26:20;;;;;;;2.63;1.83;;;;;;;9.98;64.93;94520.72;6218922;23;20429;-87
2024/03/23 16:29:00;;;;;;;;;;;;;;;;;;;;;
2024/03/23 16:31:47;;;;;;;4.17;1.97;;;;;;;9.87;65.01;94544.44;6223352;23;20196;-86
2024/03/23 16:34:21;;;;;;;3.63;2.10;;;;;;;9.82;65.48;94557.88;6222300;23;20200;-86
2024/03/23 16:37:16;;;;;;;2.33;1.80;;;;;;;9.81;65.30;94563.25;6221934;23;20304;-87
2024/03/23 16:39:47;;;;;;;4.30;2.40;;;;;;;9.67;65.74;94559.84;6220477;23;20247;-86
2024/03/23 16:42:55;;;;;;;;;;;;;;;;;;;;;
2024/03/23 16:48:44;;;;;;;3.23;2.10;;;;;;;9.73;65.52;94563.44;6095774;23;20176;-86
2024/03/23 16:51:58;;;;;;;6.47;2.47;;;;;;;9.65;65.46;94556.69;6094413;23;20207;-87
2024/03/23 16:54:29;;;;;;;4.57;2.23;;;;;;;9.71;65.27;94558.47;6088733;23;20191;-87
2024/03/23 16:57:07;;;;;;;3.80;2.30;;;;;;;9.67;65.32;94541.88;6205178;23;20190;-87
2024/03/23 16:59:34;;;;;;;2.70;2.30;;;;;;;9.66;66.48;94607.88;6214437;23;20181;-86
2024/03/23 17:02:11;;;;;;;3.80;2.13;;;;;;;9.67;67.34;94660.09;6212475;23;20182;-87
2024/03/23 17:04:41;;;;;;;3.73;2.20;;;;;;;9.45;68.46;94697.94;6213338;23;20158;-88
2024/03/23 17:07:17;;;;;;;3.40;2.37;;;;;;;9.47;69.09;94720.88;6213511;23;20197;-88
2024/03/23 17:10:11;;;;;;;3.00;2.40;;;;;;;9.50;68.88;94720.50;6213741;23;20189;-88
2024/03/23 17:12:49;;;;;;;4.00;2.17;;;;;;;9.50;68.83;94725.66;6213789;23;20497;-87
2024/03/23 17:15:36;;;;;;;4.77;2.47;;;;;;;9.43;68.08;94696.59;6216715;23;20153;-87
2024/03/23 17:21:39;;;;;;;;;;;;;;;;;;;;;
2024/03/23 17:27:28;;;;;;;4.00;1.67;;;;;;;8.18;68.50;94701.59;6210281;23;20176;-85
2024/03/23 17:30:11;;;;;;;2.30;1.50;;;;;;;7.93;71.85;94849.78;6217987;23;20562;-87
2024/03/23 17:33:15;;;;;;;1.77;1.30;;;;;;;7.51;73.71;94881.13;6216373;23;20169;-87
2024/03/23 17:36:26;;;;;;;1.33;1.10;;;;;;;7.34;73.58;94864.34;6215885;23;20185;-89
2024/03/23 17:42:38;;;;;;;3.00;0.90;;;;;;;7.85;75.46;94906.28;6184272;22;20206;-87
2024/03/23 17:55:36;;;;;;;2.13;1.27;;;;;;;8.28;71.92;94825.16;5839496;24;20216;-87
2024/03/23 18:16:23;;;;;;;2.03;1.57;;;;;;;8.12;71.56;94867.19;6185511;23;20184;-91
2024/03/23 18:19:19;;;;;;;1.93;1.20;;;;;;;8.03;70.99;94858.03;6184177;23;20636;-89
2024/03/23 18:21:48;;;;;;;2.57;1.30;;;;;;;7.85;70.83;94830.19;6182819;23;20204;-90
2024/03/23 18:38:08;;;;;;;2.37;0.97;;;;;;;7.80;73.07;94926.50;6050729;23;20193;-88
2024/03/23 18:41:21;;;;;;;1.57;1.10;;;;;;;7.78;72.64;94918.19;6179580;23;20205;-87
2024/03/23 18:44:24;;;;;;;;;;;;;;;;;;;;;
2024/03/23 18:47:47;;;;;;;1.30;1.00;;;;;;;7.01;76.14;94979.00;6183871;23;20162;-88
2024/03/23 18:50:18;;;;;;;2.97;1.00;;;;;;;6.82;79.05;95037.31;6062559;23;20204;-84
2024/03/23 18:53:10;;;;;;;;;;;;;;;;;;;;;
2024/03/23 19:06:41;;;;;;;2.57;1.57;;;;;;;7.65;74.28;94849.63;6186133;23;20182;-87
2024/03/23 19:09:18;;;;;;;1.07;1.00;;;;;;;7.72;74.34;94839.47;6172165;23;20170;-88
2024/03/23 19:14:55;;;;;;;1.70;1.33;;;;;;;7.81;73.31;94828.97;6182758;23;20186;-86
2024/03/23 19:24:23;;;;;;;3.37;1.50;;;;;;;7.89;73.97;94846.00;5943631;24;20190;-84
2024/03/23 19:27:24;;;;;;;;;;;;;;;;;;;;;
2024/03/23 19:43:06;;;;;;;2.20;1.60;;;;;;;8.00;73.36;94804.53;5930033;23;20180;-87
2024/03/23 19:46:15;;;;;;;2.20;1.50;;;;;;;7.97;73.30;94818.50;5844900;24;20193;-85
2024/03/23 19:49:37;;;;;;;3.03;1.63;;;;;;;7.96;73.28;94811.78;5965440;23;20628;-84
2024/03/23 20:09:28;;;;;;;;;;;;;;;;;;;;;
2024/03/23 20:19:37;;;;;;;2.50;1.70;;;;;;;7.62;74.42;94837.19;6176574;23;20241;-85
2024/03/23 20:29:19;;;;;;;3.07;1.80;;;;;;;7.65;73.86;94825.78;6026537;23;20208;-87
2024/03/23 20:32:07;;;;;;;2.73;1.57;;;;;;;7.60;73.52;94809.19;6071858;23;20201;-87
2024/03/23 20:48:57;;;;;;;;;;;;;;;;;;;;;
2024/03/23 20:52:00;;;;;;;2.00;1.40;;;;;;;7.55;72.14;94754.31;6187328;23;20186;-85
2024/03/23 20:54:45;;;;;;;2.37;1.73;;;;;;;7.57;72.50;94760.84;6067678;23;20181;-85
2024/03/23 21:04:07;;;;;;;3.00;1.60;;;;;;;7.67;71.54;94739.31;6139055;23;20511;-86
2024/03/23 21:07:37;;;;;;;1.70;1.50;;;;;;;7.60;71.10;94705.91;6187903;23;20262;-87
2024/03/23 21:17:15;;;;;;;;;;;;;;;;;;;;;
2024/03/23 21:23:11;;;;;;;;;;;;;;;;;;;;;
2024/03/23 21:26:09;;;;;;;1.97;1.10;;;;;;;7.08;73.33;94783.63;6065516;23;20184;-87
2024/03/23 21:29:00;;;;;;;1.90;1.20;;;;;;;6.99;73.75;94792.34;6185781;23;20182;-85
2024/03/23 21:41:27;;;;;;;2.40;1.30;;;;;;;7.03;74.01;94816.63;6184205;23;20268;-86
2024/03/23 21:44:14;;;;;;;2.07;1.20;;;;;;;7.06;74.83;94835.97;6187492;23;20174;-86
2024/03/23 22:03:48;;;;;;;1.00;0.90;;;;;;;6.76;74.64;94843.53;6142365;23;20233;-87
2024/03/23 22:43:08;;;;;;;1.60;0.97;;;;;;;6.54;73.23;94773.50;5005832;28;20242;-88
2024/03/23 22:46:15;;;;;;;1.50;0.93;;;;;;;6.66;72.98;94761.13;4994153;28;20212;-86